Strona główna
METAR-TAF:

METAR-TAF

Lotnisko :

Port lotniczy Londyn-City

Londyn, Anglia

Szerokość geograficzna: 51-30N, Długość geograficzna: 000-03E, wysokość: 5 m

Aktualna obserwacja pogody

Raport powstał 23 minut temu, godzina 12:50 UTC
Wiatr 8 kt od południe w porywach dochodzący do 21 kt, zmienny między wschodnio-południowy wschód i zachodnio-południowy zachód
Temperatura 25°C
Wilgotność 36%
Ciśnienie 1013 hPa
Widzialność 10 km lub więcej

METAR: EGLC 171250Z AUTO 18008G21KT 120V240 9999 NCD 25/09 Q1013

czas: 14:13 (13:13 UTC)

Prognoza

Raport powstał 2 godziny i 15 minut temu, godzina 10:58 UTC
Prognoza ważna od 17 godzina 12 UTC do 17 godzina 21 UTC
Wiatr 7 kt od południowo-południowy zachód
Widzialność 10 km lub więcej
Brak chmur poniżej 1500 m i brak chmur cumulonimbus

TAF: EGLC 171058Z 1712/1721 21007KT CAVOK

Obserwacja i prognoza pogody dla ponad 4000 lotnisk (raport METAR i TAF).

Dostępne stacje oznaczono żółtymi i czerwonymi punktami na mapie.

Najedź kursorem aby zobaczyć nazwę stacji.

Kliknij aby zobaczyć obserwacje i prognozy pogody.

Aby zmienić mapę: kliknij na zielony przycisk z czarnym krzyżykiem, aby powiększyć; na zielony przycisk z myślnikiem, aby pomniejszyć; na zielone strzałki, aby przejść do map sąsiednich.


METAR-TAF: